Time;durP1;ratioP1;P1;durP2;ratioP2;P2;SDS_P1;SDS_P2;PMS_P1;PMS_P2;Temp;Humidity;BMP_temperature;BMP_pressure;BME280_temperature;BME280_humidity;BME280_pressure;Samples;Min_cycle;Max_cycle;Signal;HPM_P1;HPM_P2
2021/05/10 00:02:38;;;;;;;6.75;4.25;;;;;;;9.93;53.17;100069.03;153533;1104;103223;-70
2021/05/10 00:05:42;;;;;;;5.50;3.40;;;;;;;9.87;53.64;100071.45;153416;1096;103159;-70
2021/05/10 00:08:47;;;;;;;6.00;3.90;;;;;;;9.81;53.77;100071.09;153461;1104;103200;-69
2021/05/10 00:11:51;;;;;;;5.58;3.90;;;;;;;9.74;53.94;100072.69;153450;1104;103149;-71
2021/05/10 00:14:54;;;;;;;5.47;3.73;;;;;;;9.69;53.71;100079.45;153507;1104;103110;-69
2021/05/10 00:18:03;;;;;;;5.65;4.20;;;;;;;9.64;53.61;100063.91;153457;1104;103209;-73
2021/05/10 00:21:07;;;;;;;5.80;4.15;;;;;;;9.58;54.12;100067.18;153685;1104;103154;-74
2021/05/10 00:24:10;;;;;;;5.37;3.93;;;;;;;9.53;54.10;100075.64;153577;1096;103134;-71
2021/05/10 00:27:14;;;;;;;6.20;4.10;;;;;;;9.51;54.28;100084.78;153604;1104;103134;-71
2021/05/10 00:30:19;;;;;;;5.35;4.00;;;;;;;9.48;54.24;100082.41;153472;1096;103105;-71
2021/05/10 00:33:23;;;;;;;6.07;4.33;;;;;;;9.43;54.52;100077.54;153583;1104;103231;-71
2021/05/10 00:36:27;;;;;;;6.23;4.30;;;;;;;9.36;54.54;100073.79;153482;1096;103133;-70
2021/05/10 00:39:30;;;;;;;6.83;4.23;;;;;;;9.32;54.56;100073.25;153439;1096;103157;-70
2021/05/10 00:42:34;;;;;;;6.80;4.40;;;;;;;9.28;54.57;100071.88;153479;1104;103208;-70
2021/05/10 00:45:38;;;;;;;7.70;4.18;;;;;;;9.24;54.56;100065.17;153464;1096;103148;-70
2021/05/10 00:48:41;;;;;;;7.65;4.15;;;;;;;9.18;54.84;100066.61;153479;1104;103263;-70
2021/05/10 00:51:45;;;;;;;6.25;4.30;;;;;;;9.16;55.12;100068.58;153623;1104;103276;-71
2021/05/10 00:54:50;;;;;;;6.47;4.20;;;;;;;9.12;54.92;100069.88;153463;1096;103158;-71
2021/05/10 00:58:02;;;;;;;8.30;4.87;;;;;;;9.08;54.69;100070.30;153547;1096;103140;-71
2021/05/10 01:01:05;;;;;;;5.78;3.88;;;;;;;9.03;55.35;100058.27;153556;1104;103208;-71
2021/05/10 01:04:09;;;;;;;5.80;4.10;;;;;;;9.00;55.37;100058.55;153547;1104;103220;-73
2021/05/10 01:07:13;;;;;;;6.58;3.98;;;;;;;8.96;55.28;100073.15;153607;1104;103162;-71
2021/05/10 01:10:21;;;;;;;6.93;4.10;;;;;;;8.92;55.15;100065.62;153544;1096;103205;-70
2021/05/10 01:13:25;;;;;;;5.08;3.95;;;;;;;8.89;55.01;100068.56;153545;1096;103592;-72
2021/05/10 01:16:29;;;;;;;7.73;3.73;;;;;;;8.86;55.61;100055.56;153473;1104;103138;-70
2021/05/10 01:19:35;;;;;;;19.37;5.00;;;;;;;8.83;55.83;100056.68;153439;1096;103305;-69
2021/05/10 01:22:43;;;;;;;6.67;3.93;;;;;;;8.80;55.51;100051.67;153538;1104;103690;-72
2021/05/10 01:25:49;;;;;;;5.63;4.13;;;;;;;8.78;56.18;100059.80;153468;1104;103125;-72
2021/05/10 01:28:53;;;;;;;5.73;4.30;;;;;;;8.77;55.62;100057.27;153638;1096;103208;-72
2021/05/10 01:31:57;;;;;;;5.20;3.97;;;;;;;8.72;56.18;100054.20;153555;1096;103224;-72
2021/05/10 01:35:01;;;;;;;5.83;4.17;;;;;;;8.71;55.77;100047.22;153562;1096;103279;-70
2021/05/10 01:38:09;;;;;;;5.68;3.78;;;;;;;8.67;56.49;100045.84;153481;1096;103120;-72
2021/05/10 01:41:12;;;;;;;5.75;4.18;;;;;;;8.63;55.48;100045.29;153460;1104;103196;-67
2021/05/10 01:44:16;;;;;;;6.07;4.10;;;;;;;8.60;55.64;100050.89;153466;1104;103163;-70
2021/05/10 01:47:20;;;;;;;5.27;4.20;;;;;;;8.55;56.24;100059.31;153521;1096;103209;-70
2021/05/10 01:50:24;;;;;;;5.23;3.85;;;;;;;8.52;56.06;100058.76;153453;1104;103321;-70
2021/05/10 01:53:27;;;;;;;5.23;3.80;;;;;;;8.50;56.07;100056.23;153521;1104;103163;-71
2021/05/10 01:56:31;;;;;;;6.13;3.67;;;;;;;8.46;56.23;100060.17;153437;1104;103202;-71
2021/05/10 01:59:34;;;;;;;5.43;4.20;;;;;;;8.42;56.08;100064.94;153437;1096;103201;-71
2021/05/10 02:02:38;;;;;;;5.05;3.75;;;;;;;8.39;56.09;100067.01;153540;1096;103120;-72
2021/05/10 02:05:43;;;;;;;5.85;3.65;;;;;;;8.40;56.92;100072.19;153433;1096;103592;-70
2021/05/10 02:08:46;;;;;;;5.50;3.65;;;;;;;8.43;56.14;100063.14;153471;1096;103163;-70
2021/05/10 02:11:50;;;;;;;5.08;3.58;;;;;;;8.45;55.90;100067.32;153447;1096;103139;-69
2021/05/10 02:14:53;;;;;;;6.50;3.60;;;;;;;8.47;56.50;100072.50;153442;1096;103277;-69
2021/05/10 02:17:58;;;;;;;6.38;3.55;;;;;;;8.46;56.41;100081.45;153459;1104;103198;-69
2021/05/10 02:21:02;;;;;;;4.60;3.45;;;;;;;8.41;56.13;100083.66;153468;1104;103230;-70
2021/05/10 02:24:08;;;;;;;5.40;3.80;;;;;;;8.38;56.75;100084.79;153510;1096;103182;-68
2021/05/10 02:27:11;;;;;;;6.40;3.80;;;;;;;8.36;56.03;100084.09;153536;1096;103216;-69
2021/05/10 02:30:17;;;;;;;5.95;3.98;;;;;;;8.32;56.70;100087.20;153472;1096;103171;-71
2021/05/10 02:33:22;;;;;;;8.33;3.80;;;;;;;8.26;56.06;100091.26;153607;1096;103144;-71
2021/05/10 02:36:26;;;;;;;5.25;3.85;;;;;;;8.22;56.70;100088.04;153683;1096;103154;-71
2021/05/10 02:39:29;;;;;;;5.33;4.03;;;;;;;8.19;57.03;100090.97;153612;1104;103203;-72
2021/05/10 02:42:34;;;;;;;6.58;3.95;;;;;;;8.16;57.01;100096.59;153617;1104;103280;-71
2021/05/10 02:45:38;;;;;;;5.65;4.10;;;;;;;8.14;57.25;100098.55;153658;1104;103173;-70
2021/05/10 02:48:41;;;;;;;5.40;3.73;;;;;;;8.08;57.30;100104.41;153431;1104;103476;-70
2021/05/10 02:51:46;;;;;;;6.07;4.03;;;;;;;8.03;57.26;100102.18;153397;1096;103498;-71
2021/05/10 02:54:49;;;;;;;5.30;4.20;;;;;;;7.97;57.41;100108.06;153448;1104;103238;-72
2021/05/10 02:57:54;;;;;;;5.50;4.20;;;;;;;7.93;57.16;100111.12;153480;1104;103140;-69
2021/05/10 03:00:58;;;;;;;5.70;3.77;;;;;;;7.89;56.81;100105.27;153413;1096;103883;-70
2021/05/10 03:04:01;;;;;;;6.40;4.03;;;;;;;7.88;57.15;100113.38;153557;1104;103148;-71
2021/05/10 03:07:05;;;;;;;5.93;4.03;;;;;;;7.87;57.12;100120.48;153475;1096;103323;-67
2021/05/10 03:10:11;;;;;;;5.18;3.90;;;;;;;7.88;57.71;100124.00;153534;1096;103161;-68
2021/05/10 03:13:15;;;;;;;6.70;4.73;;;;;;;7.86;57.46;100127.63;153375;1096;103203;-68
2021/05/10 03:16:18;;;;;;;5.77;4.20;;;;;;;7.85;57.26;100123.30;153437;1104;103176;-67
2021/05/10 03:19:22;;;;;;;5.80;4.27;;;;;;;7.85;57.50;100127.75;153473;1104;103141;-69
2021/05/10 03:22:26;;;;;;;7.53;4.40;;;;;;;7.85;57.04;100125.96;153455;1104;103233;-67
2021/05/10 03:25:29;;;;;;;5.50;4.10;;;;;;;7.86;57.30;100132.10;153485;1104;103229;-68
2021/05/10 03:28:33;;;;;;;5.87;3.93;;;;;;;7.90;57.80;100137.98;153500;1104;103107;-68
2021/05/10 03:31:37;;;;;;;7.55;4.83;;;;;;;7.91;57.78;100135.19;153427;1104;103145;-68
2021/05/10 03:34:40;;;;;;;6.15;4.05;;;;;;;7.93;58.24;100137.69;153529;1096;103146;-67
2021/05/10 03:37:45;;;;;;;6.75;3.78;;;;;;;7.98;58.27;100140.78;153453;1096;103233;-71
2021/05/10 03:40:48;;;;;;;7.33;3.90;;;;;;;8.12;58.06;100137.72;153539;1104;103247;-70
2021/05/10 03:43:52;;;;;;;7.27;4.40;;;;;;;8.37;57.66;100135.44;153428;1096;103209;-69
2021/05/10 03:46:56;;;;;;;6.05;4.30;;;;;;;8.65;58.20;100139.91;153496;1104;103112;-68
2021/05/10 03:50:00;;;;;;;5.90;4.00;;;;;;;8.94;57.90;100140.81;153491;1096;103154;-68
2021/05/10 03:53:03;;;;;;;6.65;4.43;;;;;;;9.28;57.72;100125.13;153530;1096;103176;-68
2021/05/10 03:56:07;;;;;;;6.50;4.13;;;;;;;9.59;58.06;100130.14;153497;1104;103285;-70
2021/05/10 03:59:11;;;;;;;5.65;4.08;;;;;;;9.92;57.73;100135.80;153485;1104;103218;-68
2021/05/10 04:02:14;;;;;;;5.88;4.13;;;;;;;10.21;58.02;100136.39;153491;1104;103211;-68
2021/05/10 04:05:36;;;;;;;5.70;4.00;;;;;;;10.50;57.71;100137.16;153455;1096;103139;-68
2021/05/10 04:09:06;;;;;;;4.83;3.73;;;;;;;10.82;58.05;100131.21;153473;1104;103209;-66
2021/05/10 04:15:32;;;;;;;5.03;3.70;;;;;;;11.41;57.75;100133.98;153546;1104;103222;-66
2021/05/10 04:18:36;;;;;;;5.35;4.20;;;;;;;11.62;56.76;100117.51;153450;1104;103123;-65
2021/05/10 04:21:40;;;;;;;5.05;3.80;;;;;;;11.87;56.57;100125.58;153484;1096;103208;-68
2021/05/10 04:24:43;;;;;;;5.60;3.87;;;;;;;12.07;56.28;100121.64;153531;1104;103296;-69
2021/05/10 04:27:48;;;;;;;4.90;3.50;;;;;;;12.28;56.39;100117.61;153473;1104;103081;-67
2021/05/10 04:30:55;;;;;;;4.20;3.48;;;;;;;12.50;56.04;100118.78;153520;1096;103125;-67
2021/05/10 04:33:59;;;;;;;4.83;3.50;;;;;;;12.71;55.94;100123.61;153734;1104;103256;-68
2021/05/10 04:37:03;;;;;;;4.50;3.40;;;;;;;12.90;56.21;100112.52;153508;1096;103208;-69
2021/05/10 04:40:08;;;;;;;5.30;3.40;;;;;;;13.07;55.89;100107.13;153446;1096;103205;-68
2021/05/10 04:43:12;;;;;;;4.47;3.47;;;;;;;13.21;55.60;100106.38;153508;1104;103683;-68
2021/05/10 04:46:16;;;;;;;4.70;3.00;;;;;;;13.38;54.41;100104.50;153495;1104;103138;-67
2021/05/10 04:49:19;;;;;;;5.60;3.20;;;;;;;13.54;55.03;100103.58;153273;1096;103139;-68
2021/05/10 04:52:23;;;;;;;3.93;2.80;;;;;;;13.70;54.90;100102.63;153340;1096;103479;-68
2021/05/10 04:55:27;;;;;;;4.55;3.33;;;;;;;13.84;54.57;100109.11;153467;1096;103272;-69
2021/05/10 04:58:30;;;;;;;3.60;2.83;;;;;;;13.98;54.69;100102.13;153545;1104;103477;-70
2021/05/10 05:01:34;;;;;;;4.37;2.93;;;;;;;14.16;54.75;100099.13;153443;1104;103142;-67
2021/05/10 05:04:37;;;;;;;4.03;3.00;;;;;;;14.31;54.42;100100.01;153429;1104;103109;-68
2021/05/10 05:07:41;;;;;;;3.70;3.00;;;;;;;14.47;54.25;100105.24;153459;1096;103134;-68
2021/05/10 05:10:44;;;;;;;5.50;2.90;;;;;;;14.61;53.90;100100.11;153491;1096;103282;-69
2021/05/10 05:13:48;;;;;;;3.87;2.73;;;;;;;14.73;53.97;100099.45;153506;1096;103148;-67
2021/05/10 05:16:51;;;;;;;4.63;3.00;;;;;;;14.86;53.89;100093.45;153545;1094;103201;-68
2021/05/10 05:19:55;;;;;;;4.30;2.90;;;;;;;14.99;53.47;100103.56;153572;1104;103250;-68
2021/05/10 05:22:58;;;;;;;4.10;2.85;;;;;;;15.10;53.01;100105.76;153446;1094;103502;-71
2021/05/10 05:26:04;;;;;;;5.55;2.80;;;;;;;15.20;53.01;100102.78;153462;1096;103148;-68
2021/05/10 05:29:07;;;;;;;4.07;2.70;;;;;;;15.30;52.45;100100.66;153540;1096;103224;-68
2021/05/10 05:32:11;;;;;;;3.90;2.67;;;;;;;15.40;52.59;100104.91;153451;1104;103208;-68
2021/05/10 05:35:15;;;;;;;4.07;2.80;;;;;;;15.46;52.25;100099.59;153452;1104;103125;-68
2021/05/10 05:38:19;;;;;;;5.85;2.58;;;;;;;15.52;52.40;100103.39;153520;1096;103202;-68
2021/05/10 05:41:23;;;;;;;3.75;2.50;;;;;;;15.59;52.67;100098.93;153435;1104;103230;-68
2021/05/10 05:44:32;;;;;;;3.38;2.58;;;;;;;15.66;52.25;100099.81;153530;1096;103134;-68
2021/05/10 05:47:36;;;;;;;5.00;2.80;;;;;;;15.71;51.87;100105.47;153503;1104;103204;-67
2021/05/10 05:50:40;;;;;;;5.25;3.08;;;;;;;15.75;51.95;100097.06;153440;1104;103145;-67
2021/05/10 05:53:44;;;;;;;4.00;3.40;;;;;;;15.76;51.32;100094.19;153451;1096;103201;-67
2021/05/10 05:56:48;;;;;;;4.63;3.00;;;;;;;15.79;51.75;100103.72;153476;1104;103679;-68
2021/05/10 05:59:51;;;;;;;5.37;4.03;;;;;;;15.82;51.90;100095.25;153463;1104;103135;-68
2021/05/10 06:02:55;;;;;;;6.63;3.40;;;;;;;15.85;52.18;100097.57;153458;1104;103147;-69
2021/05/10 06:05:58;;;;;;;6.00;3.40;;;;;;;15.88;51.37;100091.81;153574;1104;103110;-68
2021/05/10 06:09:06;;;;;;;4.30;3.43;;;;;;;15.88;50.98;100089.95;153466;1104;103202;-68
2021/05/10 06:12:11;;;;;;;4.08;3.23;;;;;;;15.90;51.47;100089.77;153538;1104;103307;-68
2021/05/10 06:15:16;;;;;;;4.87;3.27;;;;;;;15.92;51.36;100093.09;153675;1104;103127;-69
2021/05/10 06:18:20;;;;;;;3.85;3.10;;;;;;;15.92;51.62;100087.72;153480;1097;103203;-68
2021/05/10 06:21:24;;;;;;;3.73;2.97;;;;;;;15.95;51.54;100092.69;153454;1097;103126;-69
2021/05/10 06:24:28;;;;;;;5.58;3.28;;;;;;;15.98;51.53;100086.94;153454;1096;103138;-68
2021/05/10 06:27:31;;;;;;;3.65;2.85;;;;;;;16.02;51.42;100090.09;153475;1104;103518;-68
2021/05/10 06:30:35;;;;;;;3.90;2.80;;;;;;;16.07;51.38;100091.17;153601;1097;103255;-68
2021/05/10 06:33:39;;;;;;;4.47;2.80;;;;;;;16.14;51.24;100098.47;153836;1097;103163;-69
2021/05/10 06:36:43;;;;;;;3.28;2.93;;;;;;;16.19;51.16;100090.66;153589;1096;103208;-68
2021/05/10 06:39:46;;;;;;;4.57;2.77;;;;;;;16.25;51.29;100085.31;153669;1104;103583;-68
2021/05/10 06:42:50;;;;;;;3.53;2.65;;;;;;;16.35;51.34;100090.36;153468;1096;103291;-67
2021/05/10 06:45:54;;;;;;;3.60;2.70;;;;;;;16.42;51.14;100088.56;153598;1104;103250;-68
2021/05/10 06:48:57;;;;;;;4.13;2.50;;;;;;;16.48;50.75;100093.16;153460;1096;103141;-68
2021/05/10 06:52:01;;;;;;;2.63;2.13;;;;;;;16.54;51.30;100093.41;153562;1104;103109;-67
2021/05/10 06:55:07;;;;;;;2.80;2.50;;;;;;;16.60;50.96;100089.93;153602;1096;103147;-69
2021/05/10 06:58:11;;;;;;;3.20;2.40;;;;;;;16.68;50.80;100085.20;153479;1104;103214;-68
2021/05/10 07:01:14;;;;;;;6.58;2.88;;;;;;;16.75;50.25;100081.75;153514;1104;103142;-67
2021/05/10 07:04:18;;;;;;;5.67;3.57;;;;;;;16.82;50.25;100077.23;153467;1096;103201;-68
2021/05/10 07:07:22;;;;;;;5.28;2.90;;;;;;;16.88;50.33;100071.08;153559;1104;103128;-67
2021/05/10 07:10:26;;;;;;;3.17;2.30;;;;;;;16.99;50.16;100072.37;153515;1104;103131;-68
2021/05/10 07:13:29;;;;;;;5.25;3.53;;;;;;;17.08;49.99;100065.78;153511;1097;103195;-68
2021/05/10 07:16:34;;;;;;;6.70;3.30;;;;;;;17.16;50.41;100065.60;153507;1097;103141;-68
2021/05/10 07:19:38;;;;;;;3.53;2.73;;;;;;;17.26;50.59;100073.31;153596;1104;103206;-67
2021/05/10 07:22:41;;;;;;;6.33;3.15;;;;;;;17.35;50.41;100077.50;153578;1097;103205;-67
2021/05/10 07:25:46;;;;;;;4.50;3.00;;;;;;;17.46;50.27;100068.02;153428;1096;103205;-70
2021/05/10 07:28:50;;;;;;;3.13;2.45;;;;;;;17.55;50.00;100071.34;153544;1104;103191;-69
2021/05/10 07:31:54;;;;;;;4.33;2.80;;;;;;;17.64;49.89;100065.55;153444;1104;103141;-69
2021/05/10 07:34:57;;;;;;;2.93;2.43;;;;;;;17.74;49.33;100069.73;153465;1104;103555;-68
2021/05/10 07:38:01;;;;;;;4.13;2.50;;;;;;;17.80;49.24;100066.20;153436;1096;104280;-68
2021/05/10 07:41:05;;;;;;;3.27;2.40;;;;;;;17.88;49.05;100062.52;153513;1104;103134;-69
2021/05/10 07:44:09;;;;;;;6.13;2.47;;;;;;;17.95;49.24;100053.39;153480;1096;103193;-68
2021/05/10 07:47:13;;;;;;;3.38;2.50;;;;;;;18.06;49.55;100060.05;153511;1104;103134;-68
2021/05/10 07:50:16;;;;;;;2.80;2.30;;;;;;;18.13;49.52;100057.34;153444;1096;103204;-69
2021/05/10 07:53:20;;;;;;;3.98;2.50;;;;;;;18.20;48.99;100053.59;153444;1104;103205;-68
2021/05/10 07:56:24;;;;;;;2.80;2.20;;;;;;;18.28;49.27;100049.03;153458;1104;103201;-69
2021/05/10 07:59:28;;;;;;;3.43;2.50;;;;;;;18.36;49.16;100055.06;153461;1104;103180;-68
2021/05/10 08:02:32;;;;;;;3.68;2.98;;;;;;;18.44;48.78;100046.73;153462;1104;103148;-68
2021/05/10 08:05:36;;;;;;;4.20;2.40;;;;;;;18.55;49.20;100047.13;153445;1096;103134;-68
2021/05/10 08:08:40;;;;;;;5.70;2.60;;;;;;;18.67;49.19;100060.83;153473;1104;103483;-69
2021/05/10 08:11:44;;;;;;;4.20;2.53;;;;;;;18.72;48.74;100045.64;153468;1097;103145;-68
2021/05/10 08:14:47;;;;;;;4.57;2.50;;;;;;;18.80;48.64;100047.31;153449;1097;103589;-69
2021/05/10 08:17:51;;;;;;;5.05;2.85;;;;;;;18.87;48.09;100041.91;153494;1097;103112;-68
2021/05/10 08:20:57;;;;;;;3.70;2.30;;;;;;;18.95;48.27;100044.36;153507;1104;103138;-69
2021/05/10 08:24:01;;;;;;;3.67;2.50;;;;;;;18.99;48.10;100041.01;153898;1104;103205;-70
2021/05/10 08:27:04;;;;;;;3.20;2.50;;;;;;;19.04;48.06;100034.98;153503;1096;103211;-69
2021/05/10 08:30:12;;;;;;;2.83;2.33;;;;;;;19.10;47.42;100036.82;153450;1104;103301;-69
2021/05/10 08:33:16;;;;;;;2.50;2.10;;;;;;;19.17;47.94;100025.98;153538;1104;103231;-69
2021/05/10 08:36:19;;;;;;;3.28;2.35;;;;;;;19.22;47.23;100020.74;153505;1097;103211;-69
2021/05/10 08:39:23;;;;;;;3.43;2.20;;;;;;;19.27;47.88;100017.41;153534;1097;103204;-69
2021/05/10 08:42:28;;;;;;;4.80;1.98;;;;;;;19.34;47.35;100016.33;153509;1104;103123;-69
2021/05/10 08:45:31;;;;;;;4.03;1.90;;;;;;;19.43;47.05;100019.59;153491;1104;103237;-70
2021/05/10 08:48:36;;;;;;;3.00;2.00;;;;;;;19.49;46.54;100029.55;153590;1104;103240;-70
2021/05/10 08:51:40;;;;;;;2.75;2.20;;;;;;;19.56;46.74;100033.05;153373;1104;103205;-69
2021/05/10 08:54:44;;;;;;;5.13;2.13;;;;;;;19.66;46.55;100034.45;153480;1097;103205;-69
2021/05/10 08:57:47;;;;;;;2.80;1.90;;;;;;;19.75;46.32;100027.77;153467;1097;103138;-69
2021/05/10 09:00:55;;;;;;;3.60;2.37;;;;;;;19.81;46.42;100027.70;153588;1104;103296;-69
2021/05/10 09:04:05;;;;;;;3.93;2.18;;;;;;;19.87;46.40;100017.88;153554;1097;103143;-69
2021/05/10 09:07:17;;;;;;;4.55;2.20;;;;;;;19.97;46.52;100020.09;153462;1097;103525;-69
2021/05/10 09:10:21;;;;;;;2.17;1.90;;;;;;;20.08;46.34;100016.66;153444;1104;103209;-69
2021/05/10 09:13:36;;;;;;;5.57;2.00;;;;;;;20.16;46.06;100008.25;153455;1104;103141;-70
2021/05/10 09:16:54;;;;;;;4.58;1.90;;;;;;;20.24;45.89;100009.84;153532;1097;103280;-69
2021/05/10 09:19:57;;;;;;;4.10;2.03;;;;;;;20.32;45.99;100014.16;153528;1097;103120;-69
2021/05/10 09:23:02;;;;;;;2.20;2.00;;;;;;;20.38;46.47;100005.98;153453;1097;103213;-69
2021/05/10 09:26:06;;;;;;;3.30;2.10;;;;;;;20.45;44.73;100005.90;153495;1097;103128;-69
2021/05/10 09:29:25;;;;;;;5.10;2.10;;;;;;;20.53;45.81;100008.30;153624;1104;103133;-69
2021/05/10 09:32:32;;;;;;;4.68;2.30;;;;;;;20.61;45.35;99995.55;153526;1104;103322;-69
2021/05/10 09:35:36;;;;;;;2.50;1.90;;;;;;;20.71;44.85;99987.73;153507;1104;103205;-69
2021/05/10 09:38:40;;;;;;;5.70;1.90;;;;;;;20.74;45.42;99993.51;153440;1104;103215;-69
2021/05/10 09:41:58;;;;;;;4.60;1.90;;;;;;;20.81;45.17;99987.20;153434;1105;103141;-69
2021/05/10 09:45:01;;;;;;;4.35;2.00;;;;;;;20.86;44.71;99987.33;153496;1097;103206;-70
2021/05/10 09:48:24;;;;;;;3.37;1.97;;;;;;;20.93;44.93;99993.52;153410;1096;103563;-70
2021/05/10 09:51:28;;;;;;;2.98;1.80;;;;;;;21.03;45.05;99987.55;153384;1104;103155;-69
2021/05/10 09:54:33;;;;;;;2.48;2.00;;;;;;;21.09;44.52;99981.20;153455;1104;103224;-69
2021/05/10 09:57:56;;;;;;;3.70;1.97;;;;;;;21.13;44.35;99995.95;153481;1104;103108;-70
2021/05/10 10:01:00;;;;;;;3.17;1.77;;;;;;;21.18;44.16;99991.50;153505;1104;103204;-70
2021/05/10 10:04:04;;;;;;;3.07;2.10;;;;;;;21.28;43.35;99987.42;153484;1104;103290;-70
2021/05/10 10:07:08;;;;;;;3.18;1.80;;;;;;;21.34;43.63;99991.91;153511;1096;103131;-70
2021/05/10 10:10:13;;;;;;;2.30;1.95;;;;;;;21.34;43.96;100000.06;153558;1104;103834;-70
2021/05/10 10:13:17;;;;;;;4.23;1.90;;;;;;;21.42;44.33;99993.48;153456;1104;103157;-69
2021/05/10 10:16:23;;;;;;;4.13;1.90;;;;;;;21.47;43.92;99993.66;153450;1104;103138;-69
2021/05/10 10:19:27;;;;;;;3.88;2.10;;;;;;;21.48;43.47;99985.28;153455;1097;103665;-70
2021/05/10 10:22:31;;;;;;;3.75;1.90;;;;;;;21.52;43.68;99982.94;153453;1104;103227;-70
2021/05/10 10:25:36;;;;;;;3.27;2.30;;;;;;;21.62;43.79;99988.63;153470;1096;103141;-69
2021/05/10 10:28:41;;;;;;;2.28;2.00;;;;;;;21.66;43.21;99976.23;153455;1096;103123;-69
2021/05/10 10:31:48;;;;;;;3.18;2.10;;;;;;;21.71;43.22;99970.09;153537;1104;103128;-69
2021/05/10 10:34:52;;;;;;;2.30;1.80;;;;;;;21.72;42.58;99972.58;153487;1104;103326;-69
2021/05/10 10:37:58;;;;;;;2.83;2.00;;;;;;;21.74;42.72;99961.48;153509;1104;103209;-70
2021/05/10 10:41:24;;;;;;;3.53;2.00;;;;;;;21.82;42.42;99965.75;153503;1105;103131;-69
2021/05/10 10:44:36;;;;;;;5.87;1.93;;;;;;;21.86;42.42;99966.93;153475;1104;103142;-70
2021/05/10 10:47:45;;;;;;;4.93;1.90;;;;;;;21.92;42.12;99953.25;153500;1097;103208;-70
2021/05/10 10:51:01;;;;;;;4.63;2.10;;;;;;;22.00;41.82;99965.66;153566;1096;103612;-70
2021/05/10 10:54:21;;;;;;;2.48;1.80;;;;;;;22.04;41.59;99958.69;153489;1104;103563;-70
2021/05/10 10:57:34;;;;;;;2.93;1.90;;;;;;;22.09;42.20;99958.78;153488;1096;103287;-70
2021/05/10 11:01:01;;;;;;;3.00;1.70;;;;;;;22.17;41.67;99957.60;153540;1096;103206;-70
2021/05/10 11:04:24;;;;;;;3.37;1.67;;;;;;;22.22;41.35;99949.58;153542;1104;103227;-70
2021/05/10 11:07:49;;;;;;;2.75;1.90;;;;;;;22.27;41.59;99947.02;155152;1104;103274;-70
2021/05/10 11:10:55;;;;;;;2.83;1.63;;;;;;;22.33;40.84;99956.11;153538;1104;103234;-70
2021/05/10 11:14:00;;;;;;;2.70;1.70;;;;;;;22.39;41.92;99947.00;153519;1104;103141;-70
2021/05/10 11:17:03;;;;;;;2.90;1.45;;;;;;;22.42;41.17;99941.09;153477;1104;103203;-70
2021/05/10 11:20:15;;;;;;;3.73;1.90;;;;;;;22.48;40.62;99942.00;153458;1104;103155;-69
2021/05/10 11:23:39;;;;;;;3.40;1.60;;;;;;;22.53;40.53;99934.78;153491;1104;103286;-69
2021/05/10 11:26:45;;;;;;;5.00;1.83;;;;;;;22.61;40.50;99941.73;153536;1097;103210;-70
2021/05/10 11:29:52;;;;;;;3.88;1.73;;;;;;;22.68;40.83;99950.60;153476;1104;103205;-70
2021/05/10 11:32:55;;;;;;;6.23;1.87;;;;;;;22.70;39.72;99951.19;153427;1097;103208;-70
2021/05/10 11:35:59;;;;;;;2.20;1.70;;;;;;;22.77;40.20;99929.30;153506;1103;103109;-70
2021/05/10 11:39:05;;;;;;;3.73;1.50;;;;;;;22.81;38.46;99937.81;153479;1104;103330;-69
2021/05/10 11:42:10;;;;;;;3.33;2.00;;;;;;;22.84;40.21;99924.52;153511;1104;103142;-70
2021/05/10 11:45:15;;;;;;;3.40;1.53;;;;;;;22.88;39.65;99917.56;153510;1097;103123;-70
2021/05/10 11:48:42;;;;;;;3.00;1.60;;;;;;;22.91;39.52;99918.95;153481;1097;103212;-69
2021/05/10 11:51:45;;;;;;;3.55;1.80;;;;;;;22.96;39.27;99910.05;153513;1104;103205;-70
2021/05/10 11:54:51;;;;;;;2.88;1.50;;;;;;;23.05;40.16;99920.33;153443;1097;103580;-70
2021/05/10 11:57:58;;;;;;;3.60;1.70;;;;;;;23.13;39.89;99922.69;153517;1097;103139;-70
2021/05/10 12:01:01;;;;;;;3.45;1.60;;;;;;;23.15;39.53;99916.97;153490;1096;103130;-70
2021/05/10 12:04:20;;;;;;;2.58;1.60;;;;;;;23.19;39.29;99925.48;153471;1104;103144;-70
2021/05/10 12:07:26;;;;;;;2.95;1.60;;;;;;;23.16;39.29;99915.92;153499;1104;103128;-70
2021/05/10 12:10:30;;;;;;;2.37;1.57;;;;;;;23.24;38.81;99923.67;153489;1097;103105;-70
2021/05/10 12:13:33;;;;;;;4.68;1.93;;;;;;;23.32;39.13;99911.56;153507;1104;103176;-70
2021/05/10 12:16:37;;;;;;;2.20;1.45;;;;;;;23.35;39.26;99905.64;153474;1104;103174;-70
2021/05/10 12:19:54;;;;;;;2.55;1.55;;;;;;;23.33;38.87;99900.44;153448;1104;103123;-70
2021/05/10 12:22:59;;;;;;;2.03;1.60;;;;;;;23.26;39.35;99909.83;153519;1097;103179;-70
2021/05/10 12:26:11;;;;;;;2.50;1.40;;;;;;;23.25;39.01;99889.11;153525;1104;103356;-70
2021/05/10 12:29:15;;;;;;;4.45;1.45;;;;;;;23.26;39.12;99885.33;153518;1104;103147;-70
2021/05/10 12:32:19;;;;;;;3.60;1.60;;;;;;;23.35;39.03;99892.02;153465;1104;103128;-70
2021/05/10 12:35:25;;;;;;;2.40;1.50;;;;;;;23.44;38.48;99901.45;153434;1104;103125;-70
2021/05/10 12:38:30;;;;;;;5.47;1.60;;;;;;;23.52;38.37;99895.58;153477;1104;103203;-70
2021/05/10 12:41:34;;;;;;;2.87;1.40;;;;;;;23.59;38.54;99892.67;153495;1105;103390;-70
2021/05/10 12:44:38;;;;;;;2.50;1.40;;;;;;;23.63;38.06;99893.01;153517;1104;103156;-71
2021/05/10 12:47:50;;;;;;;2.35;1.50;;;;;;;23.69;36.40;99889.28;153501;1097;103205;-70
2021/05/10 12:50:54;;;;;;;4.85;3.50;;;;;;;23.80;37.63;99888.41;153585;1104;103141;-70
2021/05/10 12:54:03;;;;;;;16.03;11.18;;;;;;;23.85;36.92;99888.49;153530;1104;103203;-70
2021/05/10 12:57:07;;;;;;;18.00;13.37;;;;;;;23.85;37.75;99887.67;153476;1096;103205;-70
2021/05/10 13:00:37;;;;;;;8.78;3.53;;;;;;;23.88;37.52;99888.00;153495;1097;103202;-71
2021/05/10 13:03:41;;;;;;;3.70;2.60;;;;;;;23.91;37.50;99886.66;153506;1105;103153;-70
2021/05/10 13:06:47;;;;;;;3.60;2.40;;;;;;;23.94;36.82;99879.88;153519;1097;103142;-71
2021/05/10 13:09:50;;;;;;;3.87;2.40;;;;;;;24.01;37.47;99877.81;153460;1096;103138;-70
2021/05/10 13:12:54;;;;;;;6.23;3.23;;;;;;;24.09;36.78;99867.28;153464;1097;103200;-70
2021/05/10 13:16:02;;;;;;;6.58;3.75;;;;;;;24.14;37.44;99865.73;153607;1104;103208;-70
2021/05/10 13:19:28;;;;;;;1.75;1.50;;;;;;;24.14;37.19;99869.27;153449;1097;103567;-70
2021/05/10 13:32:45;;;;;;;5.13;2.10;;;;;;;24.24;36.96;99866.67;153489;1105;103198;-69
2021/05/10 13:35:53;;;;;;;3.30;1.80;;;;;;;24.25;36.90;99860.16;153482;1097;103506;-70
2021/05/10 13:38:56;;;;;;;2.77;1.80;;;;;;;24.32;36.26;99859.13;153433;1097;103117;-70
2021/05/10 13:42:06;;;;;;;4.15;1.78;;;;;;;24.33;35.98;99852.59;153597;1097;103154;-71
2021/05/10 13:45:13;;;;;;;5.48;2.33;;;;;;;24.35;35.62;99858.64;153540;1097;103211;-73
2021/05/10 13:48:16;;;;;;;5.17;3.43;;;;;;;24.38;36.28;99849.94;153698;1104;103260;-72
2021/05/10 13:51:20;;;;;;;4.13;2.68;;;;;;;24.41;35.53;99846.70;153609;1096;103135;-73
2021/05/10 13:54:24;;;;;;;4.55;3.40;;;;;;;24.43;35.79;99844.55;153617;1097;103145;-72
2021/05/10 13:57:27;;;;;;;7.30;2.53;;;;;;;24.45;35.40;99845.94;153625;1096;103560;-73
2021/05/10 14:00:32;;;;;;;9.18;5.60;;;;;;;24.46;35.29;99853.05;153645;1104;103181;-72
2021/05/10 14:03:35;;;;;;;5.67;3.40;;;;;;;24.49;35.56;99840.80;153668;1104;103208;-72
2021/05/10 14:06:39;;;;;;;4.43;2.60;;;;;;;24.50;35.16;99842.45;153580;1096;103204;-73
2021/05/10 14:09:44;;;;;;;2.88;1.98;;;;;;;24.52;35.27;99837.60;153632;1104;103199;-73
2021/05/10 14:12:47;;;;;;;4.15;2.50;;;;;;;24.53;35.21;99839.23;153504;1104;103169;-72
2021/05/10 14:15:51;;;;;;;3.83;2.58;;;;;;;24.56;35.25;99836.01;153597;1103;103177;-73
2021/05/10 14:18:58;;;;;;;3.03;2.10;;;;;;;24.57;35.30;99832.18;153630;1104;103215;-72
2021/05/10 14:22:02;;;;;;;4.90;2.60;;;;;;;24.53;34.88;99836.50;153622;1097;103258;-73
2021/05/10 14:25:08;;;;;;;6.35;1.80;;;;;;;24.52;33.87;99834.88;153624;1096;103200;-73